sim
Sign-in with your pilot id or email,
or register
Callsign
Passwort

Schedule Details

Flight Number: EWG1983
Departure: Marrakesh Menara Airport (GMMX) at 11:05
Arrival: Munich Airport (EDDM) at 15:00
Route: Eurowings Passenger Schedule. Enter filed route here before submitting Pirep.

Weather Information
Getting current METAR information for GMMX 240000Z 10006KT 8000 SCT100 27/10 Q1014 NOSIG
Getting current METAR information for EDDM 232350Z 20002KT CAVOK 12/11 Q1009 NOSIG

Schedule Frequency

Route Map